Time;durP1;ratioP1;P1;durP2;ratioP2;P2;SDS_P1;SDS_P2;PMS_P1;PMS_P2;Temp;Humidity;BMP_temperature;BMP_pressure;BME280_temperature;BME280_humidity;BME280_pressure;Samples;Min_cycle;Max_cycle;Signal;HPM_P1;HPM_P2
2021/09/28 00:02:19;;;;;;;14.88;12.63;;;;;;;;;;4977534;28;20491;-86
2021/09/28 00:04:45;;;;;;;22.98;13.55;;;;;;;;;;4995810;28;20046;-88
2021/09/28 00:07:11;;;;;;;15.43;12.48;;;;;;;;;;4998558;28;20046;-80
2021/09/28 00:09:37;;;;;;;12.18;10.93;;;;;;;;;;4999580;28;20036;-86
2021/09/28 00:12:03;;;;;;;12.80;11.27;;;;;;;;;;4996996;28;20113;-87
2021/09/28 00:14:29;;;;;;;12.93;11.20;;;;;;;;;;4998230;28;20033;-87
2021/09/28 00:16:55;;;;;;;14.90;11.13;;;;;;;;;;4996275;28;20030;-89
2021/09/28 00:19:21;;;;;;;12.63;10.60;;;;;;;;;;4999528;28;20022;-87
2021/09/28 00:21:47;;;;;;;12.95;10.18;;;;;;;;;;4981613;28;20035;-85
2021/09/28 00:24:14;;;;;;;11.95;10.63;;;;;;;;;;4978946;28;20042;-87
2021/09/28 00:26:40;;;;;;;13.57;10.98;;;;;;;;;;4979712;28;20030;-80
2021/09/28 00:29:06;;;;;;;12.93;10.48;;;;;;;;;;4999126;28;20023;-86
2021/09/28 00:31:32;;;;;;;12.73;11.35;;;;;;;;;;4978681;28;20042;-87
2021/09/28 00:34:01;;;;;;;12.55;10.90;;;;;;;;;;5000895;28;20030;-86
2021/09/28 00:36:27;;;;;;;13.18;11.77;;;;;;;;;;5000333;28;20051;-87
2021/09/28 00:38:53;;;;;;;13.30;10.63;;;;;;;;;;5000496;28;20022;-82
2021/09/28 00:41:19;;;;;;;12.60;10.35;;;;;;;;;;4994826;28;20053;-86
2021/09/28 00:43:54;;;;;;;11.90;10.65;;;;;;;;;;4998048;28;20061;-86
2021/09/28 00:46:21;;;;;;;13.35;11.02;;;;;;;;;;4997997;28;20030;-84
2021/09/28 00:48:47;;;;;;;14.57;10.93;;;;;;;;;;4996892;28;20081;-84
2021/09/28 00:51:14;;;;;;;12.95;10.63;;;;;;;;;;4997287;28;20563;-83
2021/09/28 00:53:41;;;;;;;11.50;10.30;;;;;;;;;;4995128;28;20109;-81
2021/09/28 00:56:08;;;;;;;13.73;11.45;;;;;;;;;;4989590;28;20026;-78
2021/09/28 00:58:38;;;;;;;12.45;10.90;;;;;;;;;;5003923;28;20030;-83
2021/09/28 01:01:04;;;;;;;13.00;11.48;;;;;;;;;;4998623;28;20026;-82
2021/09/28 01:03:33;;;;;;;14.00;11.10;;;;;;;;;;4994649;28;20045;-81
2021/09/28 01:05:59;;;;;;;12.45;11.13;;;;;;;;;;4995986;28;20487;-78
2021/09/28 01:08:26;;;;;;;12.98;11.50;;;;;;;;;;4999424;28;20056;-82
2021/09/28 01:10:52;;;;;;;14.10;11.43;;;;;;;;;;4978264;28;20038;-78
2021/09/28 01:13:18;;;;;;;12.38;10.82;;;;;;;;;;4999770;28;20034;-82
2021/09/28 01:15:48;;;;;;;13.27;11.75;;;;;;;;;;4992734;28;20042;-86
2021/09/28 01:18:17;;;;;;;14.13;11.95;;;;;;;;;;4977654;28;20034;-86
2021/09/28 01:20:43;;;;;;;13.60;11.32;;;;;;;;;;4996513;28;20586;-79
2021/09/28 01:23:09;;;;;;;14.85;11.05;;;;;;;;;;4997657;28;20496;-83
2021/09/28 01:25:35;;;;;;;15.52;11.40;;;;;;;;;;4996524;28;20030;-78
2021/09/28 01:28:03;;;;;;;12.30;10.82;;;;;;;;;;5001878;28;20026;-85
2021/09/28 01:30:29;;;;;;;13.07;11.68;;;;;;;;;;4995934;28;20029;-84
2021/09/28 01:32:55;;;;;;;13.65;11.57;;;;;;;;;;4998379;28;20030;-80
2021/09/28 01:35:21;;;;;;;12.90;11.48;;;;;;;;;;4978358;28;20069;-82
2021/09/28 01:37:47;;;;;;;15.02;12.48;;;;;;;;;;4997564;28;20476;-85
2021/09/28 01:40:14;;;;;;;16.00;11.10;;;;;;;;;;4994317;28;20161;-85
2021/09/28 01:42:40;;;;;;;13.23;11.65;;;;;;;;;;4995997;28;20441;-85
2021/09/28 01:45:06;;;;;;;16.17;12.20;;;;;;;;;;4993955;28;20029;-85
2021/09/28 01:47:33;;;;;;;12.55;11.15;;;;;;;;;;4998061;28;20037;-85
2021/09/28 01:50:00;;;;;;;14.38;11.95;;;;;;;;;;4996767;28;20022;-84
2021/09/28 01:52:26;;;;;;;13.48;11.82;;;;;;;;;;4975087;28;20053;-83
2021/09/28 01:54:52;;;;;;;13.70;12.02;;;;;;;;;;4993383;28;20101;-81
2021/09/28 01:57:18;;;;;;;13.30;11.90;;;;;;;;;;4998265;28;20046;-83
2021/09/28 01:59:44;;;;;;;14.07;11.77;;;;;;;;;;4997355;28;20031;-86
2021/09/28 02:02:10;;;;;;;15.93;12.55;;;;;;;;;;4997718;28;20029;-85
2021/09/28 02:04:36;;;;;;;14.05;12.23;;;;;;;;;;4993948;28;20118;-86
2021/09/28 02:07:02;;;;;;;14.98;13.38;;;;;;;;;;4989176;28;20037;-85
2021/09/28 02:09:28;;;;;;;14.85;12.38;;;;;;;;;;4996971;28;20026;-84
2021/09/28 02:11:55;;;;;;;15.43;11.48;;;;;;;;;;4997211;28;20026;-83
2021/09/28 02:14:26;;;;;;;14.95;12.73;;;;;;;;;;4995674;28;20026;-85
2021/09/28 02:16:53;;;;;;;14.80;12.63;;;;;;;;;;4997014;28;20026;-85
2021/09/28 02:19:19;;;;;;;14.10;12.63;;;;;;;;;;4976107;28;20080;-86
2021/09/28 02:21:45;;;;;;;15.55;12.60;;;;;;;;;;4988889;28;20033;-86
2021/09/28 02:24:11;;;;;;;17.20;13.75;;;;;;;;;;4996667;28;20066;-85
2021/09/28 02:26:40;;;;;;;14.23;12.73;;;;;;;;;;4997931;28;20464;-85
2021/09/28 02:29:06;;;;;;;16.15;13.50;;;;;;;;;;4995505;28;20149;-86
2021/09/28 02:31:32;;;;;;;15.25;13.15;;;;;;;;;;4994712;28;20042;-86
2021/09/28 02:33:58;;;;;;;18.50;14.52;;;;;;;;;;4997164;28;20029;-80
2021/09/28 02:36:26;;;;;;;17.15;14.20;;;;;;;;;;4997918;28;20022;-85
2021/09/28 02:38:52;;;;;;;20.95;14.60;;;;;;;;;;5000489;28;20018;-85
2021/09/28 02:41:18;;;;;;;16.42;14.52;;;;;;;;;;4996937;28;20034;-84
2021/09/28 02:43:44;;;;;;;16.00;14.27;;;;;;;;;;4997253;28;20065;-86
2021/09/28 02:46:11;;;;;;;18.15;15.25;;;;;;;;;;4997860;28;20021;-82
2021/09/28 02:48:37;;;;;;;17.40;14.77;;;;;;;;;;4996365;28;20058;-81
2021/09/28 02:51:03;;;;;;;18.08;15.93;;;;;;;;;;4996485;28;20040;-86
2021/09/28 02:53:29;;;;;;;20.02;17.02;;;;;;;;;;4993055;28;20092;-78
2021/09/28 02:55:55;;;;;;;17.08;15.27;;;;;;;;;;4995369;28;20575;-86
2021/09/28 02:58:22;;;;;;;18.63;16.30;;;;;;;;;;4998279;28;20026;-86
2021/09/28 03:00:48;;;;;;;18.60;16.05;;;;;;;;;;4994844;28;20031;-82
2021/09/28 03:03:14;;;;;;;22.10;16.60;;;;;;;;;;4998061;28;20031;-86
2021/09/28 03:05:40;;;;;;;20.05;16.67;;;;;;;;;;4992613;28;20036;-86
2021/09/28 03:08:06;;;;;;;18.83;16.13;;;;;;;;;;4997533;28;20030;-82
2021/09/28 03:10:32;;;;;;;17.58;15.70;;;;;;;;;;4976323;28;20030;-84
2021/09/28 03:12:58;;;;;;;20.25;16.02;;;;;;;;;;4997589;28;20038;-84
2021/09/28 03:15:24;;;;;;;18.73;16.63;;;;;;;;;;4994159;28;20026;-83
2021/09/28 03:17:51;;;;;;;19.55;16.52;;;;;;;;;;4995743;28;20029;-85
2021/09/28 03:20:17;;;;;;;18.48;16.45;;;;;;;;;;4997076;28;20037;-84
2021/09/28 03:22:43;;;;;;;19.77;16.77;;;;;;;;;;4994305;28;20032;-85
2021/09/28 03:25:09;;;;;;;18.75;16.02;;;;;;;;;;4993910;28;20046;-85
2021/09/28 03:27:35;;;;;;;18.77;16.20;;;;;;;;;;5000811;28;20605;-82
2021/09/28 03:30:04;;;;;;;19.90;17.15;;;;;;;;;;4976058;28;20104;-81
2021/09/28 03:32:31;;;;;;;20.92;17.60;;;;;;;;;;4997123;28;20030;-83
2021/09/28 03:34:57;;;;;;;20.25;17.38;;;;;;;;;;4992421;28;20060;-84
2021/09/28 03:37:23;;;;;;;19.38;16.88;;;;;;;;;;4996244;28;20030;-84
2021/09/28 03:39:49;;;;;;;20.63;17.63;;;;;;;;;;4997400;28;20026;-84
2021/09/28 03:42:15;;;;;;;21.08;18.00;;;;;;;;;;5001276;28;20034;-84
2021/09/28 03:44:41;;;;;;;20.80;16.88;;;;;;;;;;5004304;28;20029;-83
2021/09/28 03:47:07;;;;;;;22.48;17.38;;;;;;;;;;5001561;28;20034;-86
2021/09/28 03:49:33;;;;;;;20.60;17.38;;;;;;;;;;5002644;28;20488;-84
2021/09/28 03:52:02;;;;;;;22.42;18.48;;;;;;;;;;4999293;28;20073;-78
2021/09/28 03:54:28;;;;;;;23.63;18.90;;;;;;;;;;4998080;28;20419;-83
2021/09/28 03:56:54;;;;;;;21.45;18.83;;;;;;;;;;4997222;28;20029;-83
2021/09/28 03:59:20;;;;;;;20.42;18.23;;;;;;;;;;5000129;28;20022;-86
2021/09/28 04:01:47;;;;;;;24.15;17.98;;;;;;;;;;5000213;28;20031;-88
2021/09/28 04:04:14;;;;;;;21.08;18.73;;;;;;;;;;5000437;28;20046;-85
2021/09/28 04:06:44;;;;;;;20.00;17.70;;;;;;;;;;5001520;28;20496;-86
2021/09/28 04:09:10;;;;;;;23.20;19.10;;;;;;;;;;4999851;28;20034;-87
2021/09/28 04:11:38;;;;;;;23.02;18.67;;;;;;;;;;5005857;28;20077;-84
2021/09/28 04:14:04;;;;;;;24.88;20.40;;;;;;;;;;5003445;28;20069;-88
2021/09/28 04:16:32;;;;;;;23.23;19.65;;;;;;;;;;5000641;28;20027;-88
2021/09/28 04:18:59;;;;;;;21.17;18.60;;;;;;;;;;4995282;28;20025;-87
2021/09/28 04:21:27;;;;;;;23.65;19.58;;;;;;;;;;4992720;28;20052;-74
2021/09/28 04:23:53;;;;;;;26.92;19.65;;;;;;;;;;4987811;28;20064;-86
2021/09/28 04:26:20;;;;;;;23.85;19.73;;;;;;;;;;4990918;28;20511;-89
2021/09/28 04:28:47;;;;;;;28.15;20.17;;;;;;;;;;5003856;28;20018;-87
2021/09/28 04:31:15;;;;;;;24.35;19.63;;;;;;;;;;5002440;28;20031;-89
2021/09/28 04:33:42;;;;;;;27.42;21.70;;;;;;;;;;4980380;28;20457;-81
2021/09/28 04:36:08;;;;;;;26.50;20.83;;;;;;;;;;4996783;28;20052;-82
2021/09/28 04:38:34;;;;;;;28.05;22.15;;;;;;;;;;4999387;28;20022;-75
2021/09/28 04:41:00;;;;;;;30.02;22.50;;;;;;;;;;4995193;28;20395;-84
2021/09/28 04:43:26;;;;;;;25.20;20.38;;;;;;;;;;4997731;28;20587;-79
2021/09/28 04:45:52;;;;;;;28.50;22.33;;;;;;;;;;4999190;28;20084;-77
2021/09/28 04:48:18;;;;;;;25.27;21.70;;;;;;;;;;4998521;28;20065;-77
2021/09/28 04:50:52;;;;;;;29.83;23.10;;;;;;;;;;4996590;28;20022;-79
2021/09/28 04:53:20;;;;;;;24.55;21.30;;;;;;;;;;4979374;28;20054;-83
2021/09/28 04:55:46;;;;;;;26.95;20.98;;;;;;;;;;4994705;28;20034;-84
2021/09/28 04:58:14;;;;;;;25.98;21.33;;;;;;;;;;4995453;28;20034;-83
2021/09/28 05:00:40;;;;;;;27.45;22.50;;;;;;;;;;4992148;28;20047;-85
2021/09/28 05:03:06;;;;;;;26.67;22.50;;;;;;;;;;4974505;28;20022;-85
2021/09/28 05:05:33;;;;;;;28.50;23.15;;;;;;;;;;4976072;28;20048;-84
2021/09/28 05:07:59;;;;;;;28.30;22.50;;;;;;;;;;4980257;28;20072;-85
2021/09/28 05:10:25;;;;;;;27.15;21.52;;;;;;;;;;4994332;28;20506;-89
2021/09/28 05:12:51;;;;;;;24.25;21.15;;;;;;;;;;4994512;28;20034;-88
2021/09/28 05:15:17;;;;;;;28.30;22.45;;;;;;;;;;4993634;28;20026;-81
2021/09/28 05:17:43;;;;;;;26.20;22.00;;;;;;;;;;4993653;28;20084;-78
2021/09/28 05:20:12;;;;;;;29.48;22.70;;;;;;;;;;4996426;28;20026;-76
2021/09/28 05:22:38;;;;;;;30.67;23.40;;;;;;;;;;4994147;28;20034;-81
2021/09/28 05:25:04;;;;;;;29.33;23.05;;;;;;;;;;4997490;28;20019;-83
2021/09/28 05:27:30;;;;;;;32.88;23.95;;;;;;;;;;4996214;28;20461;-74
2021/09/28 05:29:56;;;;;;;28.55;22.67;;;;;;;;;;4975898;28;20457;-80
2021/09/28 05:32:22;;;;;;;28.02;22.17;;;;;;;;;;4994387;28;20046;-72
2021/09/28 05:34:48;;;;;;;28.73;22.73;;;;;;;;;;4994015;28;20030;-72
2021/09/28 05:37:14;;;;;;;28.67;23.55;;;;;;;;;;4980246;28;20050;-72
2021/09/28 05:39:40;;;;;;;33.85;23.35;;;;;;;;;;4995463;28;20028;-72
2021/09/28 05:42:06;;;;;;;32.10;23.13;;;;;;;;;;4996369;28;20054;-71
2021/09/28 05:44:36;;;;;;;29.00;22.83;;;;;;;;;;4995256;28;20066;-72
2021/09/28 05:47:04;;;;;;;32.60;23.65;;;;;;;;;;4990835;28;20026;-73
2021/09/28 05:49:32;;;;;;;30.67;23.45;;;;;;;;;;4994368;28;20026;-74
2021/09/28 05:51:59;;;;;;;29.20;22.92;;;;;;;;;;4990297;28;20132;-74
2021/09/28 05:54:26;;;;;;;29.42;23.40;;;;;;;;;;4975700;28;20109;-74
2021/09/28 05:56:53;;;;;;;29.38;23.67;;;;;;;;;;4995694;28;20038;-72
2021/09/28 05:59:19;;;;;;;28.17;23.52;;;;;;;;;;4993279;28;20375;-74
2021/09/28 06:01:46;;;;;;;29.70;24.60;;;;;;;;;;4995707;28;20018;-72
2021/09/28 06:04:12;;;;;;;29.88;23.58;;;;;;;;;;4992250;28;20121;-72
2021/09/28 06:06:38;;;;;;;31.55;24.38;;;;;;;;;;4995063;28;20019;-72
2021/09/28 06:09:04;;;;;;;32.05;24.15;;;;;;;;;;4994739;28;20081;-72
2021/09/28 06:11:31;;;;;;;31.83;24.73;;;;;;;;;;4995337;28;20797;-72
2021/09/28 06:13:57;;;;;;;31.02;25.15;;;;;;;;;;4992309;28;20400;-72
2021/09/28 06:16:23;;;;;;;29.40;24.08;;;;;;;;;;4995812;28;20023;-76
2021/09/28 06:18:49;;;;;;;31.67;25.08;;;;;;;;;;4994039;28;20031;-78
2021/09/28 06:21:15;;;;;;;29.70;25.00;;;;;;;;;;4995529;28;20060;-85
2021/09/28 06:23:41;;;;;;;27.70;23.05;;;;;;;;;;4996211;28;20036;-81
2021/09/28 06:26:08;;;;;;;28.23;23.75;;;;;;;;;;4997519;28;20026;-86
2021/09/28 06:28:37;;;;;;;27.98;23.70;;;;;;;;;;4998748;28;20034;-78
2021/09/28 06:31:04;;;;;;;33.95;25.63;;;;;;;;;;4994445;28;20025;-85
2021/09/28 06:33:30;;;;;;;29.75;25.88;;;;;;;;;;4996536;28;20034;-87
2021/09/28 06:35:56;;;;;;;27.90;24.27;;;;;;;;;;4976619;28;20046;-79
2021/09/28 06:38:22;;;;;;;29.48;23.98;;;;;;;;;;4995877;28;20491;-76
2021/09/28 06:40:48;;;;;;;27.48;22.95;;;;;;;;;;4995818;28;20073;-80
2021/09/28 06:43:14;;;;;;;27.23;22.95;;;;;;;;;;4976014;28;20449;-76
2021/09/28 06:45:40;;;;;;;30.63;23.30;;;;;;;;;;4991973;28;20034;-78
2021/09/28 06:48:06;;;;;;;32.45;23.45;;;;;;;;;;4991700;28;20034;-78
2021/09/28 06:50:32;;;;;;;29.15;23.67;;;;;;;;;;4994143;28;20026;-78
2021/09/28 06:52:58;;;;;;;28.15;23.23;;;;;;;;;;4993138;28;20041;-83
2021/09/28 06:55:25;;;;;;;28.95;23.42;;;;;;;;;;4991614;28;20097;-82
2021/09/28 06:57:51;;;;;;;30.00;23.13;;;;;;;;;;4981794;28;20034;-79
2021/09/28 07:00:17;;;;;;;31.17;23.63;;;;;;;;;;4993338;28;20027;-87
2021/09/28 07:02:43;;;;;;;29.98;23.63;;;;;;;;;;4996375;28;20025;-77
2021/09/28 07:05:13;;;;;;;27.25;22.00;;;;;;;;;;4993009;28;20523;-84
2021/09/28 07:07:40;;;;;;;27.92;23.30;;;;;;;;;;4996092;28;20427;-85
2021/09/28 07:10:07;;;;;;;27.17;24.13;;;;;;;;;;4992113;28;20166;-86
2021/09/28 07:12:36;;;;;;;28.80;23.05;;;;;;;;;;4994070;28;20172;-75
2021/09/28 07:15:05;;;;;;;28.52;22.92;;;;;;;;;;4996800;28;20375;-84
2021/09/28 07:17:31;;;;;;;25.67;21.15;;;;;;;;;;4979523;28;20034;-79
2021/09/28 07:19:57;;;;;;;28.65;22.88;;;;;;;;;;4995177;28;20029;-73
2021/09/28 07:22:26;;;;;;;28.48;21.95;;;;;;;;;;4999814;28;20030;-82
2021/09/28 07:24:52;;;;;;;29.00;21.35;;;;;;;;;;4997513;28;20026;-79
2021/09/28 07:27:18;;;;;;;27.02;22.05;;;;;;;;;;4988099;28;20026;-81
2021/09/28 07:29:44;;;;;;;27.60;21.52;;;;;;;;;;4995833;28;20026;-77
2021/09/28 07:32:10;;;;;;;25.65;21.63;;;;;;;;;;4977601;28;20034;-77
2021/09/28 07:34:36;;;;;;;23.95;21.35;;;;;;;;;;4977864;28;20392;-77
2021/09/28 07:37:07;;;;;;;26.63;21.65;;;;;;;;;;4999085;28;20026;-77
2021/09/28 07:39:33;;;;;;;26.70;21.80;;;;;;;;;;4997112;28;20054;-95
2021/09/28 07:41:59;;;;;;;25.90;21.83;;;;;;;;;;4982020;28;20555;-80
2021/09/28 07:44:25;;;;;;;31.08;22.33;;;;;;;;;;4980520;28;20097;-77
2021/09/28 07:46:52;;;;;;;26.23;20.80;;;;;;;;;;4995710;28;20050;-74
2021/09/28 07:49:18;;;;;;;26.20;20.90;;;;;;;;;;4997036;28;20026;-79
2021/09/28 07:51:45;;;;;;;27.17;20.77;;;;;;;;;;4994510;28;20026;-83
2021/09/28 07:54:11;;;;;;;24.85;20.65;;;;;;;;;;4994064;28;20110;-78
2021/09/28 07:56:37;;;;;;;23.10;20.45;;;;;;;;;;4997905;28;20029;-85
2021/09/28 07:59:07;;;;;;;22.20;18.75;;;;;;;;;;5000888;28;20030;-75
2021/09/28 08:01:33;;;;;;;23.73;20.20;;;;;;;;;;4997572;28;20037;-76
2021/09/28 08:03:59;;;;;;;23.60;18.77;;;;;;;;;;4995145;28;20046;-81
2021/09/28 08:06:25;;;;;;;25.38;19.05;;;;;;;;;;4997974;28;20510;-82
2021/09/28 08:08:51;;;;;;;21.30;19.00;;;;;;;;;;4998437;28;20019;-81
2021/09/28 08:11:18;;;;;;;21.40;19.10;;;;;;;;;;4991671;28;20034;-82
2021/09/28 08:13:44;;;;;;;22.45;19.13;;;;;;;;;;5004905;28;20038;-76
2021/09/28 08:16:14;;;;;;;23.20;18.95;;;;;;;;;;4994346;28;20052;-86
2021/09/28 08:18:41;;;;;;;22.55;18.58;;;;;;;;;;4976107;28;20038;-88
2021/09/28 08:21:07;;;;;;;22.23;19.25;;;;;;;;;;4979974;28;20038;-88
2021/09/28 08:23:33;;;;;;;21.92;18.50;;;;;;;;;;4995442;28;20080;-78
2021/09/28 08:29:08;;;;;;;22.65;18.60;;;;;;;;;;4994956;28;20035;-88
2021/09/28 08:31:32;;;;;;;27.23;19.55;;;;;;;;;;4996217;28;20566;-87
2021/09/28 08:33:58;;;;;;;23.92;19.25;;;;;;;;;;4999641;28;20030;-74
2021/09/28 08:36:24;;;;;;;26.00;19.83;;;;;;;;;;4995481;28;20046;-76
2021/09/28 08:38:50;;;;;;;24.45;19.40;;;;;;;;;;4999452;28;20037;-76
2021/09/28 08:41:16;;;;;;;23.05;19.63;;;;;;;;;;4994787;28;20034;-78
2021/09/28 08:43:42;;;;;;;24.95;18.40;;;;;;;;;;4992871;28;20065;-79
2021/09/28 08:46:08;;;;;;;22.90;19.63;;;;;;;;;;4999562;28;20387;-76
2021/09/28 08:48:34;;;;;;;23.95;18.80;;;;;;;;;;5000050;28;20034;-76
2021/09/28 08:51:00;;;;;;;23.08;18.75;;;;;;;;;;4995113;28;20049;-81
2021/09/28 08:53:27;;;;;;;24.10;18.45;;;;;;;;;;4994506;28;20038;-76
2021/09/28 08:55:53;;;;;;;20.95;18.23;;;;;;;;;;5000202;28;20074;-82
2021/09/28 08:58:23;;;;;;;24.48;18.77;;;;;;;;;;4994449;28;20030;-75
2021/09/28 09:00:51;;;;;;;23.95;18.83;;;;;;;;;;4995416;28;20027;-78
2021/09/28 09:03:33;;;;;;;22.45;19.50;;;;;;;;;;4992686;28;20019;-73
2021/09/28 09:06:00;;;;;;;23.50;18.25;;;;;;;;;;4994602;28;20093;-75
2021/09/28 09:08:28;;;;;;;22.40;19.58;;;;;;;;;;4992845;28;20029;-79
2021/09/28 09:11:00;;;;;;;20.63;18.40;;;;;;;;;;4994327;28;20034;-73
2021/09/28 09:13:33;;;;;;;22.02;18.23;;;;;;;;;;4991890;28;20118;-76
2021/09/28 09:15:59;;;;;;;22.27;18.92;;;;;;;;;;4992432;28;20445;-73
2021/09/28 09:18:25;;;;;;;23.00;18.77;;;;;;;;;;4993850;28;20037;-71
2021/09/28 09:20:51;;;;;;;21.45;17.65;;;;;;;;;;4994075;28;20027;-70
2021/09/28 09:23:28;;;;;;;20.85;18.55;;;;;;;;;;4995593;28;20500;-70
2021/09/28 09:26:03;;;;;;;21.17;17.42;;;;;;;;;;4994039;28;20038;-70
2021/09/28 09:28:33;;;;;;;19.60;17.13;;;;;;;;;;4993653;28;20027;-70
2021/09/28 09:31:22;;;;;;;20.42;16.65;;;;;;;;;;4992345;28;20018;-70
2021/09/28 09:33:48;;;;;;;19.58;16.33;;;;;;;;;;4990291;28;20116;-70
2021/09/28 09:36:19;;;;;;;23.35;16.73;;;;;;;;;;4997546;28;20081;-75
2021/09/28 09:38:55;;;;;;;20.33;16.33;;;;;;;;;;4999621;28;20034;-75
2021/09/28 09:41:27;;;;;;;18.65;16.48;;;;;;;;;;4992963;28;20042;-75
2021/09/28 09:44:00;;;;;;;18.35;15.90;;;;;;;;;;4991485;28;20480;-81
2021/09/28 09:46:38;;;;;;;18.20;15.45;;;;;;;;;;4993101;28;20122;-78
2021/09/28 09:49:09;;;;;;;17.63;15.75;;;;;;;;;;4997272;28;20034;-76
2021/09/28 09:51:48;;;;;;;17.95;15.55;;;;;;;;;;4991750;28;20526;-75
2021/09/28 09:54:15;;;;;;;17.45;15.23;;;;;;;;;;4992286;28;20575;-79
2021/09/28 09:56:41;;;;;;;18.13;15.55;;;;;;;;;;4996478;28;20476;-78
2021/09/28 09:59:07;;;;;;;15.93;14.30;;;;;;;;;;5001637;28;20057;-75
2021/09/28 10:01:35;;;;;;;17.58;14.70;;;;;;;;;;4996472;28;20026;-81
2021/09/28 10:04:02;;;;;;;16.90;14.82;;;;;;;;;;4987356;28;20045;-80
2021/09/28 10:06:28;;;;;;;17.38;15.18;;;;;;;;;;4996632;28;20022;-81
2021/09/28 10:08:54;;;;;;;20.67;15.48;;;;;;;;;;4996523;28;20471;-78
2021/09/28 10:11:21;;;;;;;19.57;14.33;;;;;;;;;;4994908;28;20558;-78
2021/09/28 10:13:48;;;;;;;20.35;14.88;;;;;;;;;;4980367;28;20063;-79
2021/09/28 10:16:29;;;;;;;17.25;15.20;;;;;;;;;;4992538;28;20030;-76
2021/09/28 10:18:56;;;;;;;16.20;14.48;;;;;;;;;;4991833;28;20353;-75
2021/09/28 10:21:34;;;;;;;19.40;13.63;;;;;;;;;;4995063;28;20133;-76
2021/09/28 10:24:18;;;;;;;21.13;15.23;;;;;;;;;;4994910;28;20488;-74
2021/09/28 10:26:44;;;;;;;21.60;16.80;;;;;;;;;;4988790;28;20034;-78
2021/09/28 10:29:29;;;;;;;80.30;59.83;;;;;;;;;;4989748;28;20049;-76
2021/09/28 10:31:55;;;;;;;20.85;18.42;;;;;;;;;;4992302;28;20571;-88
2021/09/28 10:34:21;;;;;;;19.65;16.35;;;;;;;;;;4977185;28;20124;-83
2021/09/28 10:36:52;;;;;;;17.33;14.75;;;;;;;;;;4977459;28;20384;-85
2021/09/28 10:39:37;;;;;;;16.30;13.35;;;;;;;;;;4993891;28;20073;-84
2021/09/28 10:42:04;;;;;;;14.85;13.25;;;;;;;;;;4990123;28;20511;-79
2021/09/28 10:44:34;;;;;;;19.85;13.38;;;;;;;;;;4978387;28;20027;-84
2021/09/28 10:47:00;;;;;;;16.48;13.07;;;;;;;;;;4996710;28;20033;-82
2021/09/28 10:49:30;;;;;;;14.82;12.90;;;;;;;;;;4976934;28;20162;-76
2021/09/28 10:52:15;;;;;;;14.52;12.45;;;;;;;;;;4987310;28;20039;-78
2021/09/28 10:55:01;;;;;;;15.35;13.07;;;;;;;;;;4993773;28;20037;-76
2021/09/28 10:57:50;;;;;;;14.90;12.57;;;;;;;;;;4979907;28;20022;-78
2021/09/28 11:00:16;;;;;;;14.93;13.07;;;;;;;;;;4967333;28;20034;-74
2021/09/28 11:02:52;;;;;;;14.23;12.38;;;;;;;;;;4978065;28;20034;-74
2021/09/28 11:05:31;;;;;;;16.85;12.43;;;;;;;;;;4989543;28;20046;-74
2021/09/28 11:07:57;;;;;;;16.40;12.98;;;;;;;;;;4994580;28;20022;-78
2021/09/28 11:10:23;;;;;;;16.77;13.63;;;;;;;;;;4992929;28;20034;-87
2021/09/28 11:12:49;;;;;;;15.45;13.55;;;;;;;;;;4973929;28;20044;-90
2021/09/28 11:15:19;;;;;;;16.23;13.50;;;;;;;;;;4991383;28;20027;-86
2021/09/28 11:17:45;;;;;;;18.42;14.52;;;;;;;;;;4979390;28;20080;-83
2021/09/28 11:20:22;;;;;;;16.67;14.32;;;;;;;;;;4976589;28;20380;-85
2021/09/28 11:22:54;;;;;;;16.42;14.20;;;;;;;;;;4971801;28;20026;-86
2021/09/28 11:25:20;;;;;;;17.55;14.75;;;;;;;;;;4987038;28;20042;-89
2021/09/28 11:28:06;;;;;;;15.35;13.75;;;;;;;;;;4972950;28;20030;-81
2021/09/28 11:30:34;;;;;;;17.35;14.75;;;;;;;;;;4988033;28;20140;-76
2021/09/28 11:33:03;;;;;;;18.23;13.98;;;;;;;;;;4990419;28;20038;-89
2021/09/28 11:35:29;;;;;;;19.10;15.10;;;;;;;;;;4974040;28;20481;-80
2021/09/28 11:37:59;;;;;;;16.65;14.65;;;;;;;;;;4984116;28;20026;-81
2021/09/28 11:40:36;;;;;;;17.55;15.27;;;;;;;;;;4979622;28;20413;-82
2021/09/28 11:43:19;;;;;;;18.15;14.10;;;;;;;;;;4966278;28;20117;-79
2021/09/28 11:45:45;;;;;;;17.77;15.43;;;;;;;;;;4991156;28;20476;-83
2021/09/28 11:48:11;;;;;;;19.13;16.08;;;;;;;;;;4986382;28;20039;-83
2021/09/28 11:50:40;;;;;;;19.88;15.95;;;;;;;;;;4993600;28;20030;-80
2021/09/28 11:53:07;;;;;;;17.95;15.25;;;;;;;;;;4978408;28;20178;-80
2021/09/28 11:55:33;;;;;;;19.48;14.95;;;;;;;;;;4980861;28;20034;-84
2021/09/28 11:57:59;;;;;;;19.23;16.20;;;;;;;;;;4985604;28;20081;-75
2021/09/28 12:00:25;;;;;;;16.75;14.95;;;;;;;;;;4984656;28;20027;-78
2021/09/28 12:03:03;;;;;;;18.85;15.63;;;;;;;;;;4987901;28;20650;-77
2021/09/28 12:08:25;;;;;;;21.15;16.45;;;;;;;;;;4989033;28;20510;-75
2021/09/28 12:10:51;;;;;;;17.83;15.88;;;;;;;;;;4986970;28;20037;-76
2021/09/28 12:13:19;;;;;;;19.92;16.00;;;;;;;;;;4996843;28;20034;-76
2021/09/28 12:15:58;;;;;;;17.88;15.63;;;;;;;;;;4986054;28;20026;-77
2021/09/28 12:18:24;;;;;;;21.50;16.65;;;;;;;;;;4988686;28;20055;-82
2021/09/28 12:20:50;;;;;;;17.98;15.23;;;;;;;;;;4977896;28;20064;-79
2021/09/28 12:23:17;;;;;;;22.35;16.25;;;;;;;;;;4977354;28;20548;-76
2021/09/28 12:25:45;;;;;;;17.85;15.80;;;;;;;;;;4978577;28;20062;-77
2021/09/28 12:28:17;;;;;;;18.08;15.90;;;;;;;;;;4985545;28;20034;-80
2021/09/28 12:30:51;;;;;;;18.25;15.57;;;;;;;;;;4978069;28;20480;-73
2021/09/28 12:33:17;;;;;;;18.42;16.50;;;;;;;;;;4981493;28;20381;-76
2021/09/28 12:35:44;;;;;;;20.10;15.98;;;;;;;;;;4994312;28;20034;-80
2021/09/28 12:38:11;;;;;;;19.67;17.05;;;;;;;;;;4993481;28;20365;-73
2021/09/28 12:40:44;;;;;;;19.17;17.02;;;;;;;;;;4994353;28;20050;-73
2021/09/28 12:43:17;;;;;;;20.90;15.90;;;;;;;;;;4994278;28;20035;-74
2021/09/28 12:46:04;;;;;;;18.40;16.17;;;;;;;;;;4992900;28;20027;-84
2021/09/28 12:48:38;;;;;;;19.02;15.75;;;;;;;;;;4986392;28;20038;-74
2021/09/28 12:51:07;;;;;;;19.05;15.88;;;;;;;;;;4987770;28;20385;-86
2021/09/28 12:53:33;;;;;;;17.95;15.07;;;;;;;;;;4972686;28;20455;-84
2021/09/28 12:55:59;;;;;;;16.45;14.32;;;;;;;;;;4995065;28;20030;-74
2021/09/28 12:58:25;;;;;;;16.70;14.85;;;;;;;;;;4991013;28;20384;-76
2021/09/28 13:00:52;;;;;;;20.23;14.55;;;;;;;;;;4994106;28;20030;-75
2021/09/28 13:03:22;;;;;;;18.95;15.10;;;;;;;;;;4993028;28;20109;-76
2021/09/28 13:05:59;;;;;;;17.70;14.93;;;;;;;;;;4998703;28;20113;-81
2021/09/28 13:08:29;;;;;;;22.13;15.23;;;;;;;;;;4976488;28;20108;-76
2021/09/28 13:10:56;;;;;;;19.02;13.82;;;;;;;;;;4992350;28;20026;-78
2021/09/28 13:13:23;;;;;;;16.60;13.88;;;;;;;;;;4991395;28;20132;-80
2021/09/28 13:15:50;;;;;;;16.05;13.90;;;;;;;;;;4990371;28;20023;-81
2021/09/28 13:18:16;;;;;;;20.52;13.88;;;;;;;;;;4990875;28;20030;-76
2021/09/28 13:20:43;;;;;;;16.90;14.48;;;;;;;;;;4985401;28;20122;-72
2021/09/28 13:23:10;;;;;;;18.60;15.25;;;;;;;;;;4992690;28;20078;-75
2021/09/28 13:25:36;;;;;;;17.20;14.18;;;;;;;;;;4992881;28;20036;-77
2021/09/28 13:28:04;;;;;;;16.98;14.45;;;;;;;;;;4996523;28;20038;-77
2021/09/28 13:30:30;;;;;;;17.42;14.43;;;;;;;;;;4993539;28;20026;-85
2021/09/28 13:32:56;;;;;;;16.77;14.57;;;;;;;;;;4978363;28;20048;-80
2021/09/28 13:35:23;;;;;;;18.00;13.90;;;;;;;;;;4998686;28;20089;-75
2021/09/28 13:37:51;;;;;;;15.77;13.25;;;;;;;;;;5001092;28;20030;-79
2021/09/28 13:40:17;;;;;;;18.20;13.93;;;;;;;;;;5000819;28;20022;-76
2021/09/28 13:42:43;;;;;;;17.48;13.93;;;;;;;;;;4996464;28;20444;-77
2021/09/28 13:45:09;;;;;;;17.33;14.65;;;;;;;;;;4991110;28;20044;-77
2021/09/28 13:47:35;;;;;;;15.45;13.18;;;;;;;;;;4996675;28;20026;-79
2021/09/28 13:50:01;;;;;;;17.55;14.52;;;;;;;;;;5001052;28;20035;-83
2021/09/28 13:52:28;;;;;;;18.20;14.55;;;;;;;;;;4992864;28;20078;-84
2021/09/28 13:54:54;;;;;;;21.77;17.48;;;;;;;;;;4980006;28;20046;-83
2021/09/28 13:57:20;;;;;;;19.08;15.85;;;;;;;;;;4993992;28;20022;-75
2021/09/28 13:59:46;;;;;;;19.20;15.50;;;;;;;;;;4994544;28;20062;-74
2021/09/28 14:02:12;;;;;;;18.58;15.57;;;;;;;;;;4998248;28;20030;-71
2021/09/28 14:04:39;;;;;;;18.20;15.95;;;;;;;;;;4994717;28;20149;-77
2021/09/28 14:07:05;;;;;;;20.15;16.42;;;;;;;;;;4999982;28;20018;-74
2021/09/28 14:09:33;;;;;;;18.92;16.58;;;;;;;;;;4992273;28;20061;-74
2021/09/28 14:11:59;;;;;;;19.25;15.73;;;;;;;;;;4995931;28;20027;-75
2021/09/28 14:14:25;;;;;;;19.92;16.83;;;;;;;;;;4994927;28;20072;-76
2021/09/28 14:16:52;;;;;;;21.95;16.67;;;;;;;;;;4993163;28;20023;-74
2021/09/28 14:19:18;;;;;;;19.75;16.65;;;;;;;;;;4994186;28;20101;-75
2021/09/28 14:21:44;;;;;;;20.77;16.55;;;;;;;;;;4997140;28;20019;-74
2021/09/28 14:24:11;;;;;;;19.48;17.48;;;;;;;;;;5001125;28;20022;-75
2021/09/28 14:26:38;;;;;;;21.75;17.88;;;;;;;;;;4998152;28;20031;-75